Time;durP1;ratioP1;P1;durP2;ratioP2;P2;SDS_P1;SDS_P2;PMS_P1;PMS_P2;Temp;Humidity;BMP_temperature;BMP_pressure;BME280_temperature;BME280_humidity;BME280_pressure;Samples;Min_cycle;Max_cycle;Signal;HPM_P1;HPM_P2
2023/12/01 00:01:11;;;;;;;11.95;6.47;;;-1.10;99.90;;;;;;5074058;28;20044;-67
2023/12/01 00:03:38;;;;;;;11.85;7.85;;;-1.10;99.90;;;;;;5074253;28;20045;-67
2023/12/01 00:06:05;;;;;;;13.02;6.32;;;-1.10;99.90;;;;;;5074637;28;20109;-66
2023/12/01 00:08:32;;;;;;;10.10;6.38;;;-1.20;99.90;;;;;;5072879;28;20098;-71
2023/12/01 00:10:59;;;;;;;12.50;6.82;;;-1.20;99.90;;;;;;5074342;28;20146;-66
2023/12/01 00:13:26;;;;;;;9.55;6.68;;;-1.10;99.90;;;;;;5074047;28;20048;-66
2023/12/01 00:15:53;;;;;;;12.48;6.93;;;-1.10;99.90;;;;;;5074325;28;20060;-66
2023/12/01 00:18:20;;;;;;;11.88;7.13;;;-1.10;99.90;;;;;;5074380;28;20465;-66
2023/12/01 00:20:47;;;;;;;10.68;6.90;;;-1.10;99.90;;;;;;5074408;28;20369;-66
2023/12/01 00:23:14;;;;;;;11.05;7.32;;;-1.10;99.90;;;;;;5073683;28;20036;-66
2023/12/01 00:25:41;;;;;;;13.05;6.53;;;-1.10;99.90;;;;;;5073984;28;20051;-66
2023/12/01 00:28:08;;;;;;;11.30;7.07;;;-1.10;99.90;;;;;;5074203;28;20037;-67
2023/12/01 00:30:35;;;;;;;10.85;6.13;;;-1.10;99.90;;;;;;5072390;28;20037;-67
2023/12/01 00:33:02;;;;;;;10.55;6.28;;;-1.10;99.90;;;;;;5072747;28;20371;-67
2023/12/01 00:35:30;;;;;;;11.10;6.53;;;-1.10;99.90;;;;;;5072065;28;20055;-66
2023/12/01 00:37:57;;;;;;;14.10;7.60;;;-1.10;99.90;;;;;;5073804;28;20071;-66
2023/12/01 00:40:24;;;;;;;17.63;8.98;;;-1.10;99.90;;;;;;5072287;28;20044;-66
2023/12/01 00:42:52;;;;;;;15.98;8.00;;;-1.10;99.90;;;;;;5056429;28;20045;-66
2023/12/01 00:45:18;;;;;;;13.10;7.10;;;-1.10;99.90;;;;;;5073812;28;20048;-67
2023/12/01 00:47:45;;;;;;;13.65;7.75;;;-1.10;99.90;;;;;;5073932;28;20048;-67
2023/12/01 00:50:12;;;;;;;14.05;7.22;;;-1.20;99.90;;;;;;5073735;28;20037;-67
2023/12/01 00:52:39;;;;;;;15.63;7.40;;;-1.20;99.90;;;;;;5072254;28;20658;-67
2023/12/01 00:55:06;;;;;;;13.98;7.30;;;-1.20;99.90;;;;;;5073944;28;20127;-66
2023/12/01 00:57:33;;;;;;;14.70;7.63;;;-1.20;99.90;;;;;;5072412;28;20038;-67
2023/12/01 01:00:00;;;;;;;11.98;7.95;;;-1.30;99.90;;;;;;5072601;28;20485;-71
2023/12/01 01:02:27;;;;;;;13.30;7.40;;;-1.30;99.90;;;;;;5073039;28;20047;-71
2023/12/01 01:04:54;;;;;;;14.38;7.35;;;-1.30;99.90;;;;;;5071807;28;20040;-71
2023/12/01 01:07:21;;;;;;;12.93;7.93;;;-1.30;99.90;;;;;;5073234;28;20046;-71
2023/12/01 01:09:48;;;;;;;12.30;7.10;;;-1.40;99.90;;;;;;5072117;28;20500;-71
2023/12/01 01:12:15;;;;;;;11.45;7.65;;;-1.40;99.90;;;;;;5072416;28;20428;-71
2023/12/01 01:14:41;;;;;;;13.57;7.35;;;-1.40;99.90;;;;;;5073332;28;20072;-71
2023/12/01 01:17:08;;;;;;;12.88;6.88;;;-1.40;99.90;;;;;;5072991;28;20036;-71
2023/12/01 01:19:35;;;;;;;14.10;7.68;;;-1.40;99.90;;;;;;5071772;28;20110;-71
2023/12/01 01:22:02;;;;;;;12.60;7.40;;;-1.40;99.90;;;;;;5071965;28;20474;-71
2023/12/01 01:24:28;;;;;;;13.88;7.43;;;-1.40;99.90;;;;;;5073139;28;20045;-71
2023/12/01 01:26:55;;;;;;;14.63;7.43;;;-1.40;99.90;;;;;;5075070;28;20075;-71
2023/12/01 01:29:22;;;;;;;10.70;6.95;;;-1.40;99.90;;;;;;5093176;28;20477;-71
2023/12/01 01:31:49;;;;;;;13.40;7.00;;;-1.50;99.90;;;;;;5093701;28;20131;-72
2023/12/01 01:34:16;;;;;;;11.07;7.07;;;-1.50;99.90;;;;;;5093512;28;20040;-71
2023/12/01 01:36:44;;;;;;;11.55;6.70;;;-1.50;99.90;;;;;;5091712;28;20036;-71
2023/12/01 01:39:11;;;;;;;13.32;7.70;;;-1.50;99.90;;;;;;5092110;28;20036;-71
2023/12/01 01:41:39;;;;;;;13.40;7.78;;;-1.50;99.90;;;;;;5091900;28;20075;-72
2023/12/01 01:44:08;;;;;;;15.13;8.45;;;-1.50;99.90;;;;;;5092467;28;20044;-71
2023/12/01 01:46:36;;;;;;;16.88;7.43;;;-1.50;99.90;;;;;;5092347;28;20048;-71
2023/12/01 01:49:05;;;;;;;12.18;7.32;;;-1.50;99.90;;;;;;5093269;28;20047;-72
2023/12/01 01:51:32;;;;;;;10.50;6.93;;;-1.50;99.90;;;;;;5091752;28;20040;-71
2023/12/01 01:53:59;;;;;;;17.58;6.85;;;-1.60;99.90;;;;;;5091582;28;20412;-71
2023/12/01 01:56:25;;;;;;;10.57;6.45;;;-1.60;99.90;;;;;;5092742;28;20500;-71
2023/12/01 01:58:52;;;;;;;13.43;7.78;;;-1.60;99.90;;;;;;5096095;28;20047;-71
2023/12/01 02:01:19;;;;;;;12.85;7.20;;;-1.60;99.90;;;;;;5095785;28;20366;-71
2023/12/01 02:03:46;;;;;;;11.55;7.53;;;-1.60;99.90;;;;;;5095738;28;20065;-71
2023/12/01 02:06:13;;;;;;;12.77;7.10;;;-1.60;99.90;;;;;;5096107;28;20067;-71
2023/12/01 02:08:41;;;;;;;13.55;6.60;;;-1.60;99.90;;;;;;5095551;28;20411;-72
2023/12/01 02:11:08;;;;;;;17.75;7.03;;;-1.60;99.90;;;;;;5096074;28;20048;-71
2023/12/01 02:13:35;;;;;;;14.57;7.97;;;-1.60;99.90;;;;;;5095799;28;20079;-72
2023/12/01 02:16:02;;;;;;;13.38;7.18;;;-1.60;99.90;;;;;;5095506;28;20063;-71
2023/12/01 02:18:33;;;;;;;11.40;6.97;;;-1.70;99.90;;;;;;5096441;28;20036;-71
2023/12/01 02:21:00;;;;;;;18.52;8.02;;;-1.70;99.90;;;;;;5096657;28;20105;-72
2023/12/01 02:23:27;;;;;;;12.38;6.47;;;-1.70;99.90;;;;;;5095666;28;20036;-72
2023/12/01 02:25:54;;;;;;;14.00;6.95;;;-1.80;99.90;;;;;;5095075;28;20044;-71
2023/12/01 02:28:21;;;;;;;11.18;7.10;;;-1.80;99.90;;;;;;5077988;28;20127;-71
2023/12/01 02:30:49;;;;;;;9.43;6.53;;;-1.80;99.90;;;;;;5094890;28;20052;-71
2023/12/01 02:33:16;;;;;;;14.13;6.38;;;-1.80;99.90;;;;;;5095414;28;20435;-72
2023/12/01 02:35:42;;;;;;;11.35;6.07;;;-1.80;99.90;;;;;;5096814;28;20425;-72
2023/12/01 02:38:09;;;;;;;12.43;6.55;;;-1.90;99.90;;;;;;5096451;28;20046;-71
2023/12/01 02:40:42;;;;;;;12.07;6.68;;;-1.90;99.90;;;;;;5096199;28;20052;-71
2023/12/01 02:43:11;;;;;;;12.55;7.07;;;-1.90;99.90;;;;;;5096778;28;20495;-71
2023/12/01 02:45:38;;;;;;;14.05;7.22;;;-1.90;99.90;;;;;;5095045;28;20051;-71
2023/12/01 02:48:04;;;;;;;13.20;6.43;;;-1.90;99.90;;;;;;5096424;28;20036;-71
2023/12/01 02:50:31;;;;;;;11.77;6.78;;;-1.90;99.90;;;;;;5096306;28;20046;-71
2023/12/01 02:52:58;;;;;;;11.98;6.80;;;-1.90;99.90;;;;;;5095967;28;20040;-72
2023/12/01 02:55:25;;;;;;;10.55;6.10;;;-1.90;99.90;;;;;;5095924;28;20502;-72
2023/12/01 02:57:52;;;;;;;10.82;6.28;;;-2.00;99.90;;;;;;5096126;28;20071;-71
2023/12/01 03:00:19;;;;;;;16.55;6.65;;;-1.90;99.90;;;;;;5095708;28;20127;-72
2023/12/01 03:02:46;;;;;;;10.23;5.65;;;-2.00;99.90;;;;;;5096082;28;20370;-72
2023/12/01 03:05:13;;;;;;;15.75;6.18;;;-1.90;99.90;;;;;;5095109;28;20036;-72
2023/12/01 03:07:39;;;;;;;10.85;6.80;;;-1.90;99.90;;;;;;5094341;28;20044;-71
2023/12/01 03:10:09;;;;;;;12.23;6.82;;;-1.90;99.90;;;;;;5094302;28;20047;-72
2023/12/01 03:12:36;;;;;;;13.77;7.32;;;-1.90;99.90;;;;;;5095770;28;20047;-71
2023/12/01 03:15:04;;;;;;;10.68;6.45;;;-2.00;99.90;;;;;;5095896;28;20119;-71
2023/12/01 03:17:36;;;;;;;11.93;6.35;;;-2.00;99.90;;;;;;5094781;28;20048;-72
2023/12/01 03:20:08;;;;;;;9.93;6.28;;;-2.00;99.90;;;;;;5095186;28;20043;-71
2023/12/01 03:22:34;;;;;;;14.07;6.22;;;-2.00;99.90;;;;;;5093976;28;20058;-71
2023/12/01 03:25:01;;;;;;;9.40;5.95;;;-2.00;99.90;;;;;;5094008;28;20043;-71
2023/12/01 03:27:28;;;;;;;9.60;6.10;;;-2.00;99.90;;;;;;5094338;28;20047;-71
2023/12/01 03:29:55;;;;;;;9.93;6.68;;;-2.00;99.90;;;;;;5093852;28;20400;-71
2023/12/01 03:32:22;;;;;;;10.90;6.78;;;-2.00;99.90;;;;;;5094917;28;20457;-72
2023/12/01 03:34:48;;;;;;;12.80;6.80;;;-2.00;99.90;;;;;;5094922;28;20469;-72
2023/12/01 03:37:15;;;;;;;13.80;6.72;;;-2.00;99.90;;;;;;5093917;28;20089;-72
2023/12/01 03:39:42;;;;;;;11.50;6.38;;;-2.10;99.90;;;;;;5094809;28;20123;-72
2023/12/01 03:42:09;;;;;;;9.98;6.10;;;-2.00;99.90;;;;;;5095171;28;20043;-72
2023/12/01 03:44:37;;;;;;;15.20;7.55;;;-2.00;99.90;;;;;;5094820;28;20063;-72
2023/12/01 03:47:04;;;;;;;10.65;6.70;;;-2.00;99.90;;;;;;5093328;28;20397;-72
2023/12/01 03:49:31;;;;;;;11.40;6.53;;;-2.10;99.90;;;;;;5094699;28;20122;-72
2023/12/01 03:51:58;;;;;;;10.82;6.38;;;-2.00;99.90;;;;;;5094729;28;20051;-72
2023/12/01 03:54:25;;;;;;;10.23;6.28;;;-2.00;99.90;;;;;;5094416;28;20040;-71
2023/12/01 03:56:51;;;;;;;11.85;7.10;;;-2.00;99.90;;;;;;5094577;28;20044;-72
2023/12/01 03:59:18;;;;;;;12.90;6.80;;;-1.90;99.90;;;;;;5094897;28;20044;-72
2023/12/01 04:01:45;;;;;;;8.75;6.00;;;-1.90;99.90;;;;;;5094479;28;20064;-72
2023/12/01 04:04:12;;;;;;;14.98;7.20;;;-1.90;99.90;;;;;;5094259;28;20047;-72
2023/12/01 04:06:42;;;;;;;15.48;8.63;;;-1.90;99.90;;;;;;5094513;28;20443;-72
2023/12/01 04:09:09;;;;;;;10.70;7.35;;;-1.80;99.90;;;;;;5093061;28;20056;-72
2023/12/01 04:11:37;;;;;;;13.85;7.60;;;-1.80;99.90;;;;;;5094532;28;20109;-72
2023/12/01 04:14:04;;;;;;;10.98;7.80;;;-1.70;99.90;;;;;;5094270;28;20071;-72
2023/12/01 04:16:30;;;;;;;10.63;7.18;;;-1.70;99.90;;;;;;5094110;28;20032;-72
2023/12/01 04:18:57;;;;;;;13.93;8.32;;;-1.70;99.90;;;;;;5094458;28;20048;-72
2023/12/01 04:21:24;;;;;;;12.40;7.97;;;-1.60;99.90;;;;;;5092752;28;20436;-72
2023/12/01 04:23:52;;;;;;;11.75;6.85;;;-1.60;99.90;;;;;;5093370;28;20040;-72
2023/12/01 04:26:19;;;;;;;10.63;6.68;;;-1.60;99.90;;;;;;5094837;28;20043;-71
2023/12/01 04:28:46;;;;;;;15.77;6.97;;;-1.70;99.90;;;;;;5094199;28;20036;-72
2023/12/01 04:31:12;;;;;;;11.27;6.93;;;-1.70;99.90;;;;;;5093220;28;20040;-72
2023/12/01 04:33:42;;;;;;;12.43;6.53;;;-1.80;99.90;;;;;;5094120;28;20502;-72
2023/12/01 04:36:11;;;;;;;12.55;6.35;;;-1.80;99.90;;;;;;5094351;28;20040;-72
2023/12/01 04:38:38;;;;;;;9.45;6.45;;;-1.80;99.90;;;;;;5094518;28;20132;-72
2023/12/01 04:41:09;;;;;;;14.45;7.53;;;-1.80;99.90;;;;;;5093749;28;20113;-72
2023/12/01 04:43:37;;;;;;;12.18;7.03;;;-1.80;99.90;;;;;;5093123;28;20131;-72
2023/12/01 04:46:04;;;;;;;14.98;7.18;;;-1.80;99.90;;;;;;5092829;28;20484;-72
2023/12/01 04:48:31;;;;;;;12.25;7.28;;;-1.80;99.90;;;;;;5093804;28;20105;-72
2023/12/01 04:50:58;;;;;;;13.20;7.60;;;-1.80;99.90;;;;;;5092423;28;20040;-72
2023/12/01 04:53:24;;;;;;;11.18;6.60;;;-1.80;99.90;;;;;;5093848;28;20043;-72
2023/12/01 04:55:51;;;;;;;13.18;6.88;;;-1.70;99.90;;;;;;5094216;28;20044;-72
2023/12/01 04:58:18;;;;;;;11.90;7.20;;;-1.60;99.90;;;;;;5093653;28;20041;-72
2023/12/01 05:00:45;;;;;;;9.90;6.70;;;-1.60;99.90;;;;;;5092563;28;20040;-73
2023/12/01 05:03:11;;;;;;;9.52;6.70;;;-1.60;99.90;;;;;;5093789;28;20032;-73
2023/12/01 05:05:40;;;;;;;12.60;6.88;;;-1.50;99.90;;;;;;5094016;28;20070;-73
2023/12/01 05:08:07;;;;;;;15.13;7.60;;;-1.40;99.90;;;;;;5093731;28;20128;-73
2023/12/01 05:10:34;;;;;;;14.52;8.85;;;-1.30;99.90;;;;;;5093307;28;20044;-73
2023/12/01 05:13:01;;;;;;;18.20;8.60;;;-1.20;99.90;;;;;;5093440;28;20136;-73
2023/12/01 05:15:28;;;;;;;12.15;8.68;;;-1.10;99.90;;;;;;5093965;28;20044;-73
2023/12/01 05:17:55;;;;;;;11.20;8.02;;;-1.10;99.90;;;;;;5093629;28;20040;-73
2023/12/01 05:20:25;;;;;;;14.40;9.30;;;-1.00;99.90;;;;;;5092319;28;20044;-72
2023/12/01 05:22:52;;;;;;;13.18;9.02;;;-1.00;99.90;;;;;;5093756;28;20442;-72
2023/12/01 05:25:18;;;;;;;11.57;8.75;;;-0.90;99.90;;;;;;5091985;28;20047;-72
2023/12/01 05:27:45;;;;;;;18.23;9.55;;;-0.90;99.90;;;;;;5092180;28;20048;-72
2023/12/01 05:30:12;;;;;;;13.68;9.18;;;-0.90;99.90;;;;;;5092425;28;20123;-72
2023/12/01 05:32:39;;;;;;;13.45;8.45;;;-0.80;99.90;;;;;;5094422;28;20123;-72
2023/12/01 05:35:10;;;;;;;14.52;10.18;;;-0.80;99.90;;;;;;5097826;28;20411;-72
2023/12/01 05:37:37;;;;;;;13.43;9.25;;;-0.80;99.90;;;;;;5098064;28;20397;-72
2023/12/01 05:40:05;;;;;;;16.02;9.90;;;-0.70;99.90;;;;;;5097338;28;20448;-72
2023/12/01 05:42:32;;;;;;;14.07;9.68;;;-0.70;99.90;;;;;;5097504;28;20113;-72
2023/12/01 05:44:59;;;;;;;15.98;9.88;;;-0.60;99.90;;;;;;5097100;28;20036;-73
2023/12/01 05:47:26;;;;;;;14.43;10.90;;;-0.60;99.90;;;;;;5097263;28;20039;-72
2023/12/01 05:49:56;;;;;;;15.80;10.98;;;-0.60;99.90;;;;;;5097234;28;20036;-73
2023/12/01 05:52:22;;;;;;;15.48;10.55;;;-0.60;99.90;;;;;;5098903;28;20044;-73
2023/12/01 05:54:49;;;;;;;17.60;10.90;;;-0.50;99.90;;;;;;5097980;28;20039;-73
2023/12/01 05:57:16;;;;;;;18.63;12.38;;;-0.50;99.90;;;;;;5097371;28;20040;-72
2023/12/01 05:59:43;;;;;;;16.83;12.27;;;-0.50;99.90;;;;;;5095641;28;20582;-72
2023/12/01 06:02:11;;;;;;;16.60;12.57;;;-0.50;99.90;;;;;;5097035;28;20370;-72
2023/12/01 06:04:38;;;;;;;17.40;12.40;;;-0.50;99.90;;;;;;5096924;28;20032;-72
2023/12/01 06:07:08;;;;;;;22.25;12.23;;;-0.50;99.90;;;;;;5095530;28;20087;-72
2023/12/01 06:09:35;;;;;;;18.02;13.30;;;-0.50;99.90;;;;;;5097402;28;20105;-73
2023/12/01 06:12:02;;;;;;;19.92;13.65;;;-0.40;99.90;;;;;;5095596;28;20051;-73
2023/12/01 06:14:29;;;;;;;17.65;12.10;;;-0.50;99.90;;;;;;5097477;28;20047;-73
2023/12/01 06:16:56;;;;;;;20.17;12.95;;;-0.40;99.90;;;;;;5095578;28;20047;-73
2023/12/01 06:19:24;;;;;;;17.58;13.35;;;-0.30;99.90;;;;;;5096094;28;20036;-72
2023/12/01 06:21:51;;;;;;;18.83;13.32;;;-0.40;99.90;;;;;;5097696;28;20079;-72
2023/12/01 06:24:21;;;;;;;18.67;13.02;;;-0.40;99.90;;;;;;5098434;28;20433;-72
2023/12/01 06:26:48;;;;;;;17.58;12.95;;;-0.40;99.90;;;;;;5096134;28;20066;-72
2023/12/01 06:29:16;;;;;;;19.40;14.35;;;-0.40;99.90;;;;;;5097251;28;20043;-72
2023/12/01 06:31:43;;;;;;;20.08;14.07;;;-0.40;99.90;;;;;;5095445;28;20044;-73
2023/12/01 06:34:09;;;;;;;19.30;13.93;;;-0.40;99.90;;;;;;5095963;28;20040;-72
2023/12/01 06:36:36;;;;;;;21.27;13.60;;;-0.40;99.90;;;;;;5096559;28;20040;-72
2023/12/01 06:39:10;;;;;;;20.25;13.98;;;-0.30;99.90;;;;;;5095091;28;20039;-72
2023/12/01 06:41:37;;;;;;;19.77;13.93;;;-0.40;99.90;;;;;;5096629;28;20095;-72
2023/12/01 06:44:04;;;;;;;19.48;13.70;;;-0.40;99.90;;;;;;5096113;28;20054;-69
2023/12/01 06:46:31;;;;;;;17.88;14.05;;;-0.40;99.90;;;;;;5096812;28;20055;-69
2023/12/01 06:48:58;;;;;;;19.15;14.18;;;-0.30;99.90;;;;;;5096317;28;20055;-69
2023/12/01 06:51:25;;;;;;;19.77;14.15;;;-0.20;99.90;;;;;;5095403;28;20047;-69
2023/12/01 06:53:52;;;;;;;19.05;13.30;;;-0.20;99.90;;;;;;5095573;28;20048;-69
2023/12/01 06:56:19;;;;;;;22.20;14.52;;;-0.20;99.90;;;;;;5096536;28;20043;-68
2023/12/01 06:58:46;;;;;;;18.90;14.13;;;-0.20;99.90;;;;;;5094487;28;20079;-69
2023/12/01 07:01:18;;;;;;;25.30;13.45;;;-0.20;99.90;;;;;;5096158;28;20369;-69
2023/12/01 07:03:45;;;;;;;24.48;13.90;;;-0.10;99.90;;;;;;5096337;28;20093;-69
2023/12/01 07:06:12;;;;;;;23.45;15.50;;;-0.20;99.90;;;;;;5096092;28;20048;-69
2023/12/01 07:08:39;;;;;;;24.77;13.93;;;-0.10;99.90;;;;;;5095783;28;20036;-69
2023/12/01 07:11:06;;;;;;;22.42;14.05;;;-0.20;99.90;;;;;;5077906;28;20040;-69
2023/12/01 07:13:33;;;;;;;22.85;13.05;;;-0.20;99.90;;;;;;5096175;28;20047;-69
2023/12/01 07:16:09;;;;;;;22.92;15.68;;;-0.20;99.90;;;;;;5095908;28;20047;-69
2023/12/01 07:18:38;;;;;;;25.92;15.75;;;-0.20;99.90;;;;;;5077757;28;20047;-69
2023/12/01 07:21:06;;;;;;;24.25;15.23;;;-0.10;99.90;;;;;;5094816;28;20032;-69
2023/12/01 07:23:33;;;;;;;23.00;14.30;;;-0.10;99.90;;;;;;5096120;28;20032;-69
2023/12/01 07:26:00;;;;;;;19.25;12.25;;;-0.10;99.90;;;;;;5095934;28;20039;-69
2023/12/01 07:28:27;;;;;;;23.05;15.60;;;-0.10;99.90;;;;;;5095485;28;20131;-69
2023/12/01 07:30:53;;;;;;;24.65;14.00;;;-0.10;99.90;;;;;;5095564;28;20127;-69
2023/12/01 07:33:20;;;;;;;20.77;14.80;;;0.00;99.90;;;;;;5095586;28;20050;-69
2023/12/01 07:35:47;;;;;;;23.52;14.38;;;0.00;99.90;;;;;;5095694;28;20032;-68
2023/12/01 07:38:16;;;;;;;21.83;13.07;;;0.00;99.90;;;;;;5095574;28;20060;-69
2023/12/01 07:40:44;;;;;;;21.92;13.68;;;0.00;99.90;;;;;;5095425;28;20056;-69
2023/12/01 07:43:11;;;;;;;22.25;13.90;;;-0.10;99.90;;;;;;5095099;28;20044;-68
2023/12/01 07:45:38;;;;;;;21.98;13.15;;;0.00;99.90;;;;;;5095328;28;20047;-69
2023/12/01 07:48:05;;;;;;;23.70;14.65;;;0.00;99.90;;;;;;5095401;28;20043;-68
2023/12/01 07:50:32;;;;;;;17.85;11.95;;;0.00;99.90;;;;;;5095378;28;20067;-67
2023/12/01 07:52:59;;;;;;;17.38;12.68;;;0.00;99.90;;;;;;5093912;28;20075;-68
2023/12/01 07:55:26;;;;;;;20.23;12.20;;;0.00;99.90;;;;;;5094130;28;20415;-68
2023/12/01 07:57:53;;;;;;;19.67;12.48;;;0.00;99.90;;;;;;5094903;28;20040;-68
2023/12/01 08:00:21;;;;;;;19.55;12.50;;;0.10;99.90;;;;;;5094768;28;20040;-68
2023/12/01 08:02:51;;;;;;;17.20;12.23;;;0.10;99.90;;;;;;5094914;28;20039;-67
2023/12/01 08:05:21;;;;;;;22.35;13.88;;;0.10;99.90;;;;;;5094682;28;20560;-65
2023/12/01 08:07:51;;;;;;;20.75;14.13;;;0.20;99.90;;;;;;5094541;28;20050;-67
2023/12/01 08:10:19;;;;;;;22.13;14.52;;;0.20;99.90;;;;;;5094766;28;20105;-67
2023/12/01 08:12:45;;;;;;;18.92;13.68;;;0.20;99.90;;;;;;5094476;28;20447;-67
2023/12/01 08:15:13;;;;;;;22.23;12.52;;;0.10;99.90;;;;;;5093372;28;20120;-67
2023/12/01 08:17:39;;;;;;;16.45;10.48;;;0.10;99.90;;;;;;5093322;28;20439;-67
2023/12/01 08:20:06;;;;;;;20.85;12.30;;;0.10;99.90;;;;;;5094208;28;20047;-67
2023/12/01 08:22:43;;;;;;;19.95;12.30;;;0.10;99.90;;;;;;5094518;28;20456;-67
2023/12/01 08:25:09;;;;;;;18.10;11.32;;;0.10;99.90;;;;;;5094645;28;20041;-67
2023/12/01 08:27:37;;;;;;;20.67;12.60;;;0.10;99.90;;;;;;5093708;28;20744;-67
2023/12/01 08:30:04;;;;;;;18.10;12.13;;;0.10;99.90;;;;;;5094686;28;20048;-67
2023/12/01 08:32:31;;;;;;;19.80;11.75;;;0.10;99.90;;;;;;5094731;28;20119;-71
2023/12/01 08:34:58;;;;;;;18.85;12.77;;;0.20;99.90;;;;;;5093955;28;20126;-72
2023/12/01 08:37:24;;;;;;;22.42;11.77;;;0.30;99.90;;;;;;5092935;28;20055;-73
2023/12/01 08:39:51;;;;;;;18.98;11.77;;;0.40;99.90;;;;;;5092849;28;20431;-72
2023/12/01 08:42:18;;;;;;;16.83;11.20;;;0.40;99.90;;;;;;5093334;28;20123;-72
2023/12/01 08:44:45;;;;;;;18.63;10.77;;;0.40;99.90;;;;;;5092928;28;20051;-73
2023/12/01 08:47:13;;;;;;;16.98;11.40;;;0.30;99.90;;;;;;5093135;28;20075;-71
2023/12/01 08:49:40;;;;;;;16.85;10.32;;;0.30;99.90;;;;;;5093126;28;20071;-72
2023/12/01 08:52:07;;;;;;;16.38;10.55;;;0.30;99.90;;;;;;5093755;28;20106;-68
2023/12/01 08:54:34;;;;;;;19.60;11.45;;;0.30;99.90;;;;;;5093683;28;20511;-68
2023/12/01 08:57:01;;;;;;;14.77;9.85;;;0.30;99.90;;;;;;5094306;28;20036;-71
2023/12/01 08:59:28;;;;;;;16.83;10.60;;;0.30;99.90;;;;;;5093897;28;20044;-68
2023/12/01 09:01:55;;;;;;;19.95;11.00;;;0.40;99.90;;;;;;5093049;28;20056;-68
2023/12/01 09:04:22;;;;;;;19.75;11.27;;;0.40;99.90;;;;;;5092594;28;20059;-68
2023/12/01 09:06:49;;;;;;;34.53;11.00;;;0.40;99.90;;;;;;5094488;28;20047;-69
2023/12/01 09:09:16;;;;;;;19.25;10.80;;;0.40;99.90;;;;;;5093873;28;20135;-68
2023/12/01 09:11:42;;;;;;;16.35;10.63;;;0.50;99.90;;;;;;5093892;28;20044;-68
2023/12/01 09:14:09;;;;;;;18.08;11.02;;;0.50;99.90;;;;;;5094189;28;20123;-68
2023/12/01 09:16:36;;;;;;;17.15;10.10;;;0.50;99.90;;;;;;5092617;28;20043;-68
2023/12/01 09:19:03;;;;;;;19.13;11.80;;;0.50;99.90;;;;;;5093424;28;20040;-68
2023/12/01 09:21:33;;;;;;;17.00;10.25;;;0.50;99.90;;;;;;5094041;28;20075;-69
2023/12/01 09:24:00;;;;;;;14.95;10.43;;;0.50;99.90;;;;;;5094026;28;20427;-68
2023/12/01 09:26:28;;;;;;;17.55;10.63;;;0.50;99.90;;;;;;5092695;28;20418;-68
2023/12/01 09:28:55;;;;;;;15.90;10.38;;;0.50;99.90;;;;;;5093377;28;20439;-68
2023/12/01 09:31:22;;;;;;;20.60;11.85;;;0.60;99.90;;;;;;5093683;28;20036;-69
2023/12/01 09:33:49;;;;;;;17.17;10.30;;;0.60;99.90;;;;;;5093662;28;20123;-69
2023/12/01 09:36:19;;;;;;;17.45;10.63;;;0.60;99.90;;;;;;5093495;28;20044;-68
2023/12/01 09:38:49;;;;;;;21.10;11.27;;;0.70;99.90;;;;;;5093635;28;20109;-68
2023/12/01 09:41:17;;;;;;;19.48;10.65;;;0.70;99.90;;;;;;5093767;28;20044;-68
2023/12/01 09:43:43;;;;;;;18.52;10.68;;;0.70;99.90;;;;;;5093210;28;20032;-69
2023/12/01 09:46:10;;;;;;;18.00;10.30;;;0.70;99.90;;;;;;5093832;28;20044;-68
2023/12/01 09:48:37;;;;;;;16.58;10.20;;;0.70;99.90;;;;;;5093284;28;20036;-68
2023/12/01 09:51:04;;;;;;;16.50;10.63;;;0.80;99.90;;;;;;5093729;28;20044;-68
2023/12/01 09:53:31;;;;;;;15.48;10.38;;;0.80;99.90;;;;;;5092571;28;20040;-68
2023/12/01 09:55:59;;;;;;;16.08;10.30;;;0.80;99.90;;;;;;5091937;28;20040;-68
2023/12/01 09:58:26;;;;;;;19.80;11.73;;;0.90;99.90;;;;;;5093024;28;20036;-68
2023/12/01 10:00:53;;;;;;;17.80;11.13;;;1.00;99.90;;;;;;5092435;28;20123;-68
2023/12/01 10:03:20;;;;;;;15.63;10.27;;;1.00;99.90;;;;;;5093576;28;20085;-68
2023/12/01 10:05:47;;;;;;;13.65;9.98;;;1.00;99.90;;;;;;5093603;28;20043;-68
2023/12/01 10:08:14;;;;;;;16.83;10.85;;;1.00;99.90;;;;;;5093571;28;20093;-67
2023/12/01 10:10:41;;;;;;;15.95;10.10;;;1.10;99.90;;;;;;5093731;28;20075;-68
2023/12/01 10:13:09;;;;;;;15.55;10.48;;;1.10;99.90;;;;;;5093361;28;20044;-68
2023/12/01 10:15:38;;;;;;;15.13;10.05;;;1.20;99.90;;;;;;5093690;28;20496;-67
2023/12/01 10:18:05;;;;;;;14.65;9.73;;;1.20;99.90;;;;;;5094070;28;20066;-68
2023/12/01 10:20:32;;;;;;;16.55;10.90;;;1.20;99.90;;;;;;5097419;28;20376;-68
2023/12/01 10:22:58;;;;;;;14.85;10.13;;;1.20;99.90;;;;;;5097434;28;20040;-68
2023/12/01 10:25:27;;;;;;;17.50;10.32;;;1.20;99.90;;;;;;5097386;28;20032;-68
2023/12/01 10:27:56;;;;;;;14.35;10.38;;;1.20;99.90;;;;;;5096869;28;20046;-68
2023/12/01 10:30:23;;;;;;;17.02;10.05;;;1.30;99.90;;;;;;5095690;28;20089;-67
2023/12/01 10:32:51;;;;;;;18.52;9.93;;;1.30;99.90;;;;;;5096718;28;20052;-68
2023/12/01 10:35:18;;;;;;;14.68;10.23;;;1.30;99.90;;;;;;5097100;28;20067;-68
2023/12/01 10:37:45;;;;;;;15.57;9.90;;;1.40;99.90;;;;;;5096676;28;20465;-67
2023/12/01 10:40:13;;;;;;;17.10;9.43;;;1.40;99.90;;;;;;5095848;28;20101;-67
2023/12/01 10:42:40;;;;;;;13.55;9.75;;;1.40;99.90;;;;;;5096183;28;20036;-67
2023/12/01 10:45:07;;;;;;;13.43;9.73;;;1.50;99.90;;;;;;5096349;28;20040;-67
2023/12/01 10:47:34;;;;;;;14.55;10.18;;;1.50;99.90;;;;;;5095123;28;20522;-68
2023/12/01 10:50:02;;;;;;;15.18;9.98;;;1.60;99.90;;;;;;5096543;28;20484;-67
2023/12/01 10:52:29;;;;;;;14.90;10.13;;;1.60;99.90;;;;;;5096245;28;20040;-67
2023/12/01 10:54:55;;;;;;;16.23;10.77;;;1.60;99.90;;;;;;5095072;28;20131;-67
2023/12/01 10:57:22;;;;;;;16.15;9.85;;;1.60;99.90;;;;;;5095657;28;20036;-67
2023/12/01 10:59:49;;;;;;;16.15;10.98;;;1.70;99.90;;;;;;5095913;28;20082;-67
2023/12/01 11:02:16;;;;;;;14.50;9.75;;;1.60;99.90;;;;;;5095843;28;20115;-69
2023/12/01 11:04:44;;;;;;;17.35;9.70;;;1.60;99.90;;;;;;5095917;28;20048;-68
2023/12/01 11:07:11;;;;;;;15.45;10.32;;;1.60;99.90;;;;;;5094382;28;20519;-69
2023/12/01 11:09:39;;;;;;;15.32;9.88;;;1.60;99.90;;;;;;5095023;28;20115;-69
2023/12/01 11:12:06;;;;;;;16.20;9.93;;;1.70;99.90;;;;;;5090218;28;20040;-67
2023/12/01 11:14:33;;;;;;;13.55;10.55;;;1.80;99.90;;;;;;5092796;28;20040;-68
2023/12/01 11:16:59;;;;;;;15.80;10.85;;;1.80;99.90;;;;;;5073747;28;20063;-68
2023/12/01 11:19:26;;;;;;;15.73;9.98;;;1.80;99.90;;;;;;5075203;28;20046;-71
2023/12/01 11:21:53;;;;;;;13.07;9.57;;;1.80;99.90;;;;;;5075094;28;20045;-70
2023/12/01 11:24:20;;;;;;;14.75;10.05;;;1.90;99.90;;;;;;5075420;28;20103;-69
2023/12/01 11:26:47;;;;;;;16.17;10.02;;;1.90;99.90;;;;;;5083457;28;20481;-71
2023/12/01 11:32:10;;;;;;;14.57;10.43;;;1.90;99.90;;;;;;5072977;28;20209;-69
2023/12/01 11:34:37;;;;;;;14.77;10.60;;;1.90;99.90;;;;;;5075044;28;20047;-69
2023/12/01 11:37:06;;;;;;;16.15;11.32;;;1.90;99.90;;;;;;5087127;28;20040;-71
2023/12/01 11:39:34;;;;;;;13.13;9.52;;;1.90;99.90;;;;;;5092230;28;20512;-70
2023/12/01 11:42:01;;;;;;;16.35;10.35;;;2.00;99.90;;;;;;5094487;28;20370;-71
2023/12/01 11:44:29;;;;;;;13.98;9.55;;;1.90;99.90;;;;;;5087068;28;20047;-70
2023/12/01 11:46:57;;;;;;;14.85;9.90;;;1.90;99.90;;;;;;5076459;28;20427;-71
2023/12/01 11:49:29;;;;;;;13.07;9.10;;;1.80;99.90;;;;;;5087238;28;20043;-68
2023/12/01 11:51:57;;;;;;;13.35;8.98;;;1.90;99.90;;;;;;5094376;28;20040;-68
2023/12/01 11:54:23;;;;;;;15.88;8.60;;;1.90;99.90;;;;;;5094257;28;20085;-68
2023/12/01 11:56:51;;;;;;;12.45;8.75;;;1.90;99.90;;;;;;5094331;28;20101;-68
2023/12/01 11:59:17;;;;;;;14.40;9.18;;;1.90;99.90;;;;;;5092794;28;20036;-68
2023/12/01 12:01:45;;;;;;;11.85;8.93;;;2.00;99.90;;;;;;5094473;28;20040;-68
2023/12/01 12:04:16;;;;;;;17.25;9.32;;;2.00;99.90;;;;;;5093174;28;20040;-67
2023/12/01 12:06:44;;;;;;;13.27;9.20;;;2.00;99.90;;;;;;5076428;28;20056;-70
2023/12/01 12:09:17;;;;;;;13.18;9.18;;;2.10;99.90;;;;;;5075551;28;20032;-70
2023/12/01 12:11:44;;;;;;;14.90;8.80;;;2.20;99.90;;;;;;5084694;28;20127;-70
2023/12/01 12:14:12;;;;;;;14.40;8.50;;;2.20;99.90;;;;;;5077687;28;20047;-69
2023/12/01 12:16:39;;;;;;;15.82;9.98;;;2.30;99.90;;;;;;5077332;28;20481;-71
2023/12/01 12:19:05;;;;;;;14.60;9.95;;;2.20;99.90;;;;;;5082354;28;20051;-71
2023/12/01 12:21:33;;;;;;;16.90;10.27;;;2.20;99.90;;;;;;5087137;28;20070;-71
2023/12/01 12:24:00;;;;;;;15.77;10.00;;;2.20;99.90;;;;;;5091382;28;20051;-67
2023/12/01 12:26:26;;;;;;;13.68;9.52;;;2.20;99.90;;;;;;5073961;28;20040;-67
2023/12/01 12:28:53;;;;;;;15.30;9.80;;;2.20;99.90;;;;;;5080648;28;20045;-67
2023/12/01 12:31:30;;;;;;;18.65;9.95;;;2.30;99.90;;;;;;5086949;28;20071;-67
2023/12/01 12:33:57;;;;;;;17.40;10.10;;;2.30;99.90;;;;;;5093597;28;20457;-67
2023/12/01 12:36:26;;;;;;;14.48;9.52;;;2.30;99.90;;;;;;5089758;28;20074;-68
2023/12/01 12:38:53;;;;;;;15.77;10.48;;;2.30;99.90;;;;;;5091926;28;20048;-67
2023/12/01 12:41:20;;;;;;;15.15;9.98;;;2.30;99.90;;;;;;5092728;28;20048;-68